Time;durP1;ratioP1;P1;durP2;ratioP2;P2;SDS_P1;SDS_P2;PMS_P1;PMS_P2;Temp;Humidity;BMP_temperature;BMP_pressure;BME280_temperature;BME280_humidity;BME280_pressure;Samples;Min_cycle;Max_cycle;Signal;HPM_P1;HPM_P2
2021/07/31 00:02:08;;;;;;;26.30;11.20;;;;;;;30.60;36.80;93464.78;4985943;28;20109;-76
2021/07/31 00:04:34;;;;;;;25.23;10.18;;;;;;;30.64;37.40;93462.75;4984099;28;20043;-77
2021/07/31 00:06:59;;;;;;;31.60;10.05;;;;;;;30.52;37.54;93459.50;4982884;28;20065;-76
2021/07/31 00:09:25;;;;;;;31.25;9.18;;;;;;;30.31;37.83;93443.56;4982792;28;20437;-76
2021/07/31 00:11:50;;;;;;;19.63;10.18;;;;;;;30.39;37.67;93447.69;4984457;28;20034;-77
2021/07/31 00:14:15;;;;;;;23.38;9.88;;;;;;;30.42;37.68;93459.69;4986676;28;20034;-77
2021/07/31 00:16:41;;;;;;;16.80;9.60;;;;;;;30.29;38.42;93462.31;4985930;28;20034;-76
2021/07/31 00:19:06;;;;;;;26.27;9.85;;;;;;;30.32;38.75;93461.44;4986529;28;20324;-77
2021/07/31 00:21:31;;;;;;;25.23;9.75;;;;;;;29.93;38.21;93412.44;4983960;28;20041;-76
2021/07/31 00:23:57;;;;;;;20.52;9.73;;;;;;;30.14;38.18;93441.97;4987746;28;20425;-77
2021/07/31 00:26:22;;;;;;;24.60;11.43;;;;;;;30.18;38.93;93450.84;4986012;28;20062;-77
2021/07/31 00:28:48;;;;;;;22.67;9.65;;;;;;;30.17;38.55;93454.75;4990203;28;20511;-76
2021/07/31 00:31:13;;;;;;;23.20;9.80;;;;;;;30.24;38.48;93464.75;4987062;28;20041;-76
2021/07/31 00:33:39;;;;;;;18.85;8.63;;;;;;;30.19;38.58;93446.94;4992697;28;20042;-78
2021/07/31 00:36:04;;;;;;;19.35;9.73;;;;;;;30.15;38.43;93457.16;4991226;28;20038;-77
2021/07/31 00:38:29;;;;;;;22.38;9.18;;;;;;;30.12;39.15;93452.53;4986711;28;20109;-77
2021/07/31 00:40:55;;;;;;;19.58;9.93;;;;;;;30.06;39.48;93460.41;4988338;28;20026;-78
2021/07/31 00:43:20;;;;;;;25.08;9.98;;;;;;;29.95;39.63;93454.44;4987009;28;20447;-77
2021/07/31 00:45:45;;;;;;;24.33;9.88;;;;;;;29.90;39.66;93445.97;4989562;28;20117;-77
2021/07/31 00:48:11;;;;;;;22.25;9.77;;;;;;;29.97;39.32;93459.44;4989454;28;20034;-78
2021/07/31 00:50:36;;;;;;;22.63;10.88;;;;;;;29.82;39.88;93439.06;4991647;28;20519;-77
2021/07/31 00:53:02;;;;;;;16.70;9.77;;;;;;;29.79;39.66;93450.81;4988116;28;20575;-77
2021/07/31 00:55:29;;;;;;;17.90;10.02;;;;;;;29.76;39.68;93449.72;4989047;28;20052;-76
2021/07/31 00:57:55;;;;;;;22.55;9.95;;;;;;;29.74;39.81;93459.47;4985201;28;20041;-76
2021/07/31 01:00:20;;;;;;;23.02;10.13;;;;;;;29.58;40.47;93441.09;4990380;28;20042;-76
2021/07/31 01:02:45;;;;;;;24.45;10.55;;;;;;;29.65;40.22;93454.59;4984070;28;20065;-76
2021/07/31 01:05:11;;;;;;;24.23;10.93;;;;;;;29.50;40.65;93432.28;4987859;28;20034;-77
2021/07/31 01:07:37;;;;;;;23.13;10.05;;;;;;;29.60;40.57;93446.91;4988763;28;20432;-79
2021/07/31 01:10:04;;;;;;;18.83;10.02;;;;;;;29.48;41.11;93442.06;4987240;28;20038;-76
2021/07/31 01:12:32;;;;;;;24.63;9.38;;;;;;;29.53;40.76;93449.75;4986755;28;20093;-76
2021/07/31 01:14:58;;;;;;;20.58;9.98;;;;;;;29.46;40.40;93439.00;4986808;28;20048;-76
2021/07/31 01:17:23;;;;;;;21.90;9.63;;;;;;;29.52;40.36;93438.06;4985532;28;20026;-76
2021/07/31 01:19:49;;;;;;;25.67;10.25;;;;;;;29.42;40.11;93422.69;4988041;28;20465;-77
2021/07/31 01:22:14;;;;;;;22.90;10.00;;;;;;;29.42;40.55;93428.16;4987434;28;20520;-75
2021/07/31 01:24:40;;;;;;;23.13;10.63;;;;;;;29.35;40.98;93432.97;4986454;28;20567;-77
2021/07/31 01:27:05;;;;;;;20.17;10.10;;;;;;;29.39;41.29;93439.88;4987674;28;20041;-76
2021/07/31 01:29:31;;;;;;;24.40;10.98;;;;;;;29.32;41.25;93434.56;4988830;28;20115;-78
2021/07/31 01:31:57;;;;;;;18.90;10.10;;;;;;;29.24;40.95;93422.22;4989227;28;20148;-76
2021/07/31 01:34:22;;;;;;;21.52;10.70;;;;;;;29.17;41.29;93417.69;4987055;28;20132;-76
2021/07/31 01:36:48;;;;;;;25.27;9.90;;;;;;;29.20;40.90;93421.53;4984546;28;20038;-78
2021/07/31 01:39:14;;;;;;;20.08;10.10;;;;;;;29.23;40.97;93431.56;4988713;28;20057;-76
2021/07/31 01:41:39;;;;;;;27.83;11.43;;;;;;;29.19;41.22;93430.88;4985187;28;20030;-77
2021/07/31 01:44:04;;;;;;;27.05;11.55;;;;;;;29.14;41.48;93436.78;4988819;28;20152;-77
2021/07/31 01:46:30;;;;;;;16.25;9.25;;;;;;;29.04;41.41;93413.25;4985760;28;20038;-77
2021/07/31 01:48:55;;;;;;;31.95;10.55;;;;;;;29.09;41.44;93434.53;4985818;28;20064;-77
2021/07/31 01:51:20;;;;;;;22.13;9.90;;;;;;;28.93;41.86;93426.28;4985181;28;20464;-76
2021/07/31 01:53:46;;;;;;;24.95;10.23;;;;;;;28.96;41.69;93436.31;4984998;28;20132;-77
2021/07/31 01:56:12;;;;;;;24.70;10.30;;;;;;;28.95;41.89;93430.09;4985168;28;20120;-78
2021/07/31 01:58:38;;;;;;;23.77;11.00;;;;;;;28.88;41.42;93413.13;4987707;28;20491;-77
2021/07/31 02:01:03;;;;;;;26.95;10.95;;;;;;;29.05;41.24;93426.44;4986082;28;20111;-76
2021/07/31 02:03:28;;;;;;;30.33;10.55;;;;;;;29.02;41.15;93426.50;4988603;28;20034;-77
2021/07/31 02:05:54;;;;;;;28.17;11.52;;;;;;;28.97;41.02;93419.59;4985402;28;20050;-78
2021/07/31 02:08:19;;;;;;;18.38;11.45;;;;;;;29.13;40.99;93427.06;4988215;28;20030;-76
2021/07/31 02:10:45;;;;;;;25.67;11.00;;;;;;;29.09;41.53;93426.38;4986283;28;20485;-77
2021/07/31 02:13:10;;;;;;;23.33;10.50;;;;;;;29.06;41.75;93429.94;4989445;28;20066;-76
2021/07/31 02:15:40;;;;;;;24.73;11.90;;;;;;;29.02;41.34;93421.84;4984364;28;20112;-78
2021/07/31 02:18:06;;;;;;;23.98;12.07;;;;;;;28.95;41.74;93434.78;4989366;28;20050;-77
2021/07/31 02:20:31;;;;;;;21.23;11.25;;;;;;;28.97;41.49;93435.13;4982747;28;20058;-79
2021/07/31 02:22:57;;;;;;;22.92;9.68;;;;;;;28.85;41.42;93420.16;4997527;28;20029;-76
2021/07/31 02:25:23;;;;;;;24.70;11.48;;;;;;;28.98;42.03;93439.41;4987230;28;20048;-76
2021/07/31 02:27:50;;;;;;;19.90;10.35;;;;;;;28.80;41.58;93421.41;4983845;28;20493;-76
2021/07/31 02:30:15;;;;;;;22.88;10.43;;;;;;;28.80;41.73;93426.06;4988901;28;20048;-76
2021/07/31 02:32:41;;;;;;;24.35;10.73;;;;;;;28.81;42.37;93441.22;4985006;28;20042;-77
2021/07/31 02:35:08;;;;;;;22.48;10.55;;;;;;;28.73;41.97;93429.69;4987890;28;20120;-76
2021/07/31 02:37:33;;;;;;;22.65;10.25;;;;;;;28.68;42.35;93435.56;4987088;28;20554;-77
2021/07/31 02:39:58;;;;;;;26.80;10.70;;;;;;;28.65;42.21;93430.94;4984610;28;20136;-77
2021/07/31 02:42:26;;;;;;;27.23;12.48;;;;;;;28.72;42.29;93452.63;4988237;28;20262;-76
2021/07/31 02:44:51;;;;;;;26.17;10.82;;;;;;;28.71;42.40;93434.75;4986966;28;20042;-77
2021/07/31 02:47:16;;;;;;;30.67;11.50;;;;;;;28.64;42.21;93429.38;4985468;28;20019;-78
2021/07/31 02:49:42;;;;;;;24.45;10.10;;;;;;;28.67;42.14;93450.31;4987351;28;20033;-78
2021/07/31 02:52:07;;;;;;;23.92;11.43;;;;;;;28.72;42.40;93449.91;4983047;28;20046;-76
2021/07/31 02:54:32;;;;;;;19.55;10.80;;;;;;;28.71;42.35;93451.06;4985991;28;20042;-75
2021/07/31 02:56:58;;;;;;;28.65;11.05;;;;;;;28.70;42.21;93451.44;4985606;28;20042;-75
2021/07/31 02:59:23;;;;;;;27.50;11.52;;;;;;;28.70;41.84;93438.63;4987269;28;20026;-76
2021/07/31 03:01:49;;;;;;;23.48;11.32;;;;;;;28.69;42.26;93447.94;4986899;28;20532;-75
2021/07/31 03:04:16;;;;;;;26.83;10.63;;;;;;;28.70;41.90;93449.50;4987503;28;20406;-77
2021/07/31 03:06:41;;;;;;;27.70;11.88;;;;;;;28.68;42.39;93457.31;4987083;28;20042;-77
2021/07/31 03:09:06;;;;;;;21.42;10.70;;;;;;;28.49;42.64;93446.34;4983662;28;20048;-78
2021/07/31 03:11:32;;;;;;;21.48;10.90;;;;;;;28.50;42.96;93445.13;4985877;28;21234;-78
2021/07/31 03:13:59;;;;;;;24.65;10.70;;;;;;;28.47;42.84;93441.28;4987186;28;20058;-75
2021/07/31 03:16:25;;;;;;;25.35;12.32;;;;;;;28.56;42.88;93460.56;4987340;28;20468;-76
2021/07/31 03:18:50;;;;;;;21.33;10.98;;;;;;;28.39;43.09;93451.47;4984709;28;20034;-76
2021/07/31 03:21:15;;;;;;;21.67;11.48;;;;;;;28.32;43.24;93457.03;4985027;28;20034;-77
2021/07/31 03:23:41;;;;;;;24.02;11.15;;;;;;;28.36;43.20;93451.53;4984452;28;20034;-77
2021/07/31 03:26:06;;;;;;;22.95;10.95;;;;;;;28.36;43.11;93457.75;4984983;28;20540;-77
2021/07/31 03:28:31;;;;;;;20.65;12.27;;;;;;;28.28;43.20;93455.53;4987566;28;20026;-76
2021/07/31 03:30:57;;;;;;;21.63;11.25;;;;;;;28.26;42.73;93438.84;4985906;28;20077;-77
2021/07/31 03:33:24;;;;;;;22.33;10.07;;;;;;;28.22;43.26;93446.28;4985189;28;20130;-77
2021/07/31 03:35:52;;;;;;;23.35;11.25;;;;;;;28.19;43.45;93447.91;4985893;28;20054;-76
2021/07/31 03:38:18;;;;;;;26.00;11.88;;;;;;;28.24;43.41;93454.81;4985258;28;20037;-76
2021/07/31 03:40:43;;;;;;;23.73;12.40;;;;;;;28.16;43.21;93442.47;4985749;28;20481;-76
2021/07/31 03:43:09;;;;;;;27.30;13.57;;;;;;;28.20;43.18;93440.50;4981722;28;20034;-78
2021/07/31 03:45:34;;;;;;;25.98;12.50;;;;;;;28.32;44.11;93445.38;4987160;28;20073;-77
2021/07/31 03:48:00;;;;;;;23.45;11.75;;;;;;;28.35;43.23;93441.84;4986379;28;20042;-77
2021/07/31 03:50:26;;;;;;;34.03;12.48;;;;;;;28.46;43.41;93445.19;4982780;28;20037;-78
2021/07/31 03:52:51;;;;;;;22.48;10.40;;;;;;;28.35;43.82;93434.47;4987480;28;20038;-77
2021/07/31 03:55:17;;;;;;;18.98;10.25;;;;;;;28.42;44.05;93441.75;4983037;28;20049;-78
2021/07/31 03:57:42;;;;;;;24.70;12.27;;;;;;;28.27;44.29;93437.69;4986834;28;20117;-76
2021/07/31 04:00:08;;;;;;;22.35;11.75;;;;;;;28.41;44.14;93437.50;4989690;28;20547;-76
2021/07/31 04:02:33;;;;;;;19.92;11.05;;;;;;;28.54;44.60;93445.88;4986425;28;20725;-77
2021/07/31 04:04:59;;;;;;;22.42;11.15;;;;;;;28.59;45.25;93459.00;4990414;28;20034;-77
2021/07/31 04:07:25;;;;;;;24.15;10.93;;;;;;;28.50;44.94;93461.44;4988192;28;20042;-76
2021/07/31 04:09:51;;;;;;;24.95;10.98;;;;;;;28.40;45.85;93453.03;4990580;28;20034;-77
2021/07/31 04:12:16;;;;;;;22.38;11.57;;;;;;;28.41;44.91;93442.94;4990032;28;20037;-77
2021/07/31 04:14:42;;;;;;;27.40;11.45;;;;;;;28.50;45.48;93464.16;4984245;28;20497;-77
2021/07/31 04:17:07;;;;;;;25.08;11.05;;;;;;;28.47;44.06;93444.00;4997643;28;21443;-76
2021/07/31 04:19:33;;;;;;;24.30;11.43;;;;;;;28.48;44.75;93470.03;4986197;28;20141;-75
2021/07/31 04:21:58;;;;;;;32.28;11.85;;;;;;;28.61;44.50;93471.00;4990562;28;20090;-77
2021/07/31 04:24:24;;;;;;;22.20;11.13;;;;;;;28.67;43.95;93477.50;4988234;28;20160;-77
2021/07/31 04:26:50;;;;;;;22.90;11.10;;;;;;;28.73;44.10;93483.28;4987433;28;20402;-78
2021/07/31 04:29:15;;;;;;;29.45;12.43;;;;;;;28.74;43.91;93466.56;4989367;28;20124;-77
2021/07/31 04:31:42;;;;;;;23.27;11.55;;;;;;;28.97;43.36;93489.53;4987291;28;20030;-76
2021/07/31 04:34:08;;;;;;;25.13;12.60;;;;;;;28.98;42.98;93496.53;4991141;28;20034;-77
2021/07/31 04:36:33;;;;;;;27.60;12.82;;;;;;;29.13;43.10;93497.81;4984944;28;20121;-77
2021/07/31 04:39:00;;;;;;;30.20;12.02;;;;;;;29.13;42.63;93486.94;4988266;28;20038;-77
2021/07/31 04:41:25;;;;;;;28.95;13.95;;;;;;;29.36;41.34;93505.28;4989384;28;20030;-76
2021/07/31 04:43:51;;;;;;;24.83;12.57;;;;;;;29.33;41.87;93495.19;4988705;28;20027;-77
2021/07/31 04:46:16;;;;;;;26.33;12.60;;;;;;;29.48;41.10;93510.13;4987868;28;20539;-77
2021/07/31 04:48:42;;;;;;;29.50;13.20;;;;;;;29.35;41.37;93498.28;4990980;28;20442;-78
2021/07/31 04:51:09;;;;;;;28.50;13.05;;;;;;;29.49;42.05;93509.72;4980324;28;20132;-77
2021/07/31 04:53:35;;;;;;;25.60;13.02;;;;;;;29.45;41.43;93506.28;4991214;28;20061;-78
2021/07/31 04:56:00;;;;;;;25.60;12.57;;;;;;;29.56;41.36;93514.28;4987447;28;20117;-77
2021/07/31 04:58:25;;;;;;;26.85;12.30;;;;;;;29.64;41.20;93526.56;4987767;28;20857;-77
2021/07/31 05:00:51;;;;;;;34.30;13.35;;;;;;;29.63;41.41;93509.47;4989532;28;20404;-77
2021/07/31 05:03:17;;;;;;;27.23;13.32;;;;;;;29.57;41.99;93522.00;4986123;28;20401;-76
2021/07/31 05:05:43;;;;;;;24.67;15.68;;;;;;;29.59;41.88;93502.53;4990120;28;20034;-76
2021/07/31 05:08:09;;;;;;;26.65;12.48;;;;;;;29.81;41.43;93530.19;4992174;28;20104;-76
2021/07/31 05:10:43;;;;;;;26.48;13.50;;;;;;;29.82;42.13;93520.78;4989082;28;20026;-76
2021/07/31 05:13:08;;;;;;;26.95;14.27;;;;;;;29.69;40.99;93523.38;4988322;28;20038;-77
2021/07/31 05:15:36;;;;;;;23.45;11.38;;;;;;;29.70;40.96;93514.78;4983415;28;20074;-78
2021/07/31 05:18:01;;;;;;;22.17;12.45;;;;;;;29.90;40.47;93527.69;4986650;28;20042;-77
2021/07/31 05:20:27;;;;;;;24.00;12.00;;;;;;;29.91;40.88;93527.25;4995488;28;20433;-77
2021/07/31 05:22:53;;;;;;;28.70;13.30;;;;;;;29.88;40.98;93522.63;4986127;28;20026;-76
2021/07/31 05:25:19;;;;;;;27.10;13.00;;;;;;;29.86;41.03;93516.81;4985673;28;20046;-77
2021/07/31 05:27:44;;;;;;;25.20;12.55;;;;;;;29.92;41.42;93519.84;4985419;28;20060;-77
2021/07/31 05:30:10;;;;;;;26.92;13.40;;;;;;;29.91;40.97;93507.44;4990742;28;20918;-77
2021/07/31 05:32:35;;;;;;;36.50;13.77;;;;;;;29.98;41.08;93526.38;4985932;28;20081;-77
2021/07/31 05:35:01;;;;;;;22.15;12.77;;;;;;;29.86;41.35;93495.03;4989949;28;20030;-76
2021/07/31 05:37:27;;;;;;;29.75;12.73;;;;;;;30.19;41.09;93539.59;4986042;28;20042;-77
2021/07/31 05:39:52;;;;;;;24.50;12.93;;;;;;;30.19;40.83;93525.97;4989815;28;20042;-77
2021/07/31 05:42:18;;;;;;;35.95;12.98;;;;;;;30.34;40.79;93538.13;4987661;28;20061;-78
2021/07/31 05:44:43;;;;;;;26.00;13.10;;;;;;;30.45;41.17;93535.94;4987090;28;20557;-76
2021/07/31 05:47:08;;;;;;;28.60;12.68;;;;;;;30.48;40.56;93535.16;4986388;28;20749;-78
2021/07/31 05:49:34;;;;;;;33.28;13.73;;;;;;;30.44;40.57;93539.88;4987474;28;20092;-76
2021/07/31 05:51:59;;;;;;;31.45;13.35;;;;;;;30.29;40.90;93533.19;4990790;28;20053;-77
2021/07/31 05:54:24;;;;;;;32.53;13.35;;;;;;;30.20;41.10;93530.25;4987050;28;20045;-75
2021/07/31 05:56:50;;;;;;;29.63;12.63;;;;;;;30.30;41.61;93542.13;4987066;28;20038;-76
2021/07/31 05:59:16;;;;;;;29.17;14.23;;;;;;;30.15;41.87;93538.91;4981244;28;20052;-78
2021/07/31 06:01:42;;;;;;;33.08;13.13;;;;;;;30.37;41.74;93537.28;4985666;28;20034;-77
2021/07/31 06:04:07;;;;;;;32.15;12.70;;;;;;;30.43;41.87;93524.72;4986379;28;20037;-77
2021/07/31 06:06:33;;;;;;;31.25;13.68;;;;;;;30.45;41.61;93530.50;4987052;28;20462;-78
2021/07/31 06:08:59;;;;;;;31.65;12.85;;;;;;;30.64;41.20;93542.63;4987712;28;20069;-77
2021/07/31 06:11:24;;;;;;;27.40;12.95;;;;;;;30.53;41.48;93528.44;4986763;28;20517;-76
2021/07/31 06:13:50;;;;;;;36.92;14.57;;;;;;;30.73;40.81;93540.09;4984046;28;20116;-77
2021/07/31 06:16:15;;;;;;;26.95;12.68;;;;;;;30.93;40.89;93543.53;4988772;28;20165;-77
2021/07/31 06:18:41;;;;;;;27.10;13.52;;;;;;;30.85;40.50;93508.63;4986135;28;20053;-76
2021/07/31 06:21:14;;;;;;;40.85;14.05;;;;;;;31.01;40.29;93511.41;4989054;28;20037;-77
2021/07/31 06:23:40;;;;;;;26.58;12.88;;;;;;;30.84;41.01;93537.88;4986437;28;20061;-77
2021/07/31 06:26:07;;;;;;;23.52;12.00;;;;;;;31.03;40.57;93530.88;4987200;28;20162;-76
2021/07/31 06:28:33;;;;;;;31.73;12.52;;;;;;;30.93;40.01;93518.22;4985687;28;20065;-76
2021/07/31 06:30:58;;;;;;;29.38;13.23;;;;;;;31.22;40.21;93532.78;4981428;28;20468;-77
2021/07/31 06:33:24;;;;;;;26.15;11.70;;;;;;;31.33;40.04;93530.53;4984992;28;20450;-77
2021/07/31 06:35:49;;;;;;;30.27;12.65;;;;;;;31.39;39.47;93531.56;4987736;28;20037;-77
2021/07/31 06:38:14;;;;;;;26.38;10.82;;;;;;;31.32;40.58;93531.75;4986065;28;20064;-78
2021/07/31 06:40:42;;;;;;;27.63;13.00;;;;;;;31.39;39.01;93526.13;4984836;28;20015;-78
2021/07/31 06:43:08;;;;;;;31.80;12.90;;;;;;;31.47;39.75;93520.50;4992499;28;20484;-77
2021/07/31 06:45:33;;;;;;;28.38;12.07;;;;;;;31.52;39.95;93522.72;4988084;28;20027;-78
2021/07/31 06:47:59;;;;;;;28.42;13.35;;;;;;;31.34;39.68;93504.78;4987693;28;20045;-75
2021/07/31 06:50:24;;;;;;;27.77;12.40;;;;;;;31.36;39.57;93501.63;4987704;28;20087;-76
2021/07/31 06:52:49;;;;;;;27.25;12.57;;;;;;;31.49;39.26;93523.53;4989162;28;20041;-76
2021/07/31 06:55:15;;;;;;;29.15;13.13;;;;;;;31.57;39.32;93522.97;4987389;28;20496;-76
2021/07/31 06:57:40;;;;;;;28.58;13.07;;;;;;;31.55;39.81;93519.09;4984180;28;20039;-77
2021/07/31 07:00:06;;;;;;;26.38;11.93;;;;;;;31.57;39.79;93508.56;4987354;28;20653;-77
2021/07/31 07:02:32;;;;;;;24.00;11.60;;;;;;;31.77;39.48;93509.19;4986048;28;20037;-77
2021/07/31 07:04:57;;;;;;;26.38;14.32;;;;;;;31.98;39.13;93522.31;4987187;28;20048;-76
2021/07/31 07:07:22;;;;;;;32.25;13.25;;;;;;;31.89;38.97;93516.69;4983837;28;20122;-77
2021/07/31 07:09:48;;;;;;;25.35;12.75;;;;;;;31.84;38.98;93511.75;4988169;28;20120;-77
2021/07/31 07:12:13;;;;;;;22.27;12.18;;;;;;;32.02;38.57;93511.28;4985630;28;20046;-78
2021/07/31 07:14:39;;;;;;;34.03;13.43;;;;;;;32.28;38.63;93517.63;4985133;28;20049;-78
2021/07/31 07:17:05;;;;;;;24.13;13.35;;;;;;;32.36;38.37;93519.72;4987514;28;20026;-78
2021/07/31 07:19:31;;;;;;;27.83;12.80;;;;;;;32.23;38.58;93506.03;4984924;28;20030;-77
2021/07/31 07:21:56;;;;;;;36.10;15.07;;;;;;;32.25;38.17;93509.09;4985974;28;20041;-77
2021/07/31 07:24:21;;;;;;;24.10;12.73;;;;;;;32.41;38.47;93510.22;4983849;28;20210;-78
2021/07/31 07:26:47;;;;;;;27.35;13.73;;;;;;;32.54;38.71;93519.25;4977321;28;20040;-77
2021/07/31 07:29:13;;;;;;;28.30;13.88;;;;;;;32.54;37.64;93525.47;4982029;28;20511;-78
2021/07/31 07:31:38;;;;;;;29.67;13.65;;;;;;;32.19;37.87;93513.56;4980659;28;20451;-78
2021/07/31 07:34:03;;;;;;;31.50;13.43;;;;;;;32.43;37.75;93511.34;4985678;28;20141;-77
2021/07/31 07:36:29;;;;;;;27.52;13.43;;;;;;;32.51;37.08;93520.09;4983695;28;21135;-77
2021/07/31 07:38:54;;;;;;;22.55;12.25;;;;;;;32.66;37.42;93521.25;4990821;28;20044;-77
2021/07/31 07:41:20;;;;;;;35.70;13.18;;;;;;;32.82;37.42;93518.44;4980005;28;20034;-77
2021/07/31 07:43:45;;;;;;;29.48;13.93;;;;;;;32.98;36.43;93525.78;4987628;28;20034;-77
2021/07/31 07:46:15;;;;;;;27.10;12.75;;;;;;;33.09;37.50;93520.72;4985254;28;20453;-78
2021/07/31 07:48:44;;;;;;;30.17;14.20;;;;;;;33.16;36.83;93536.22;4987833;28;20480;-78
2021/07/31 07:51:10;;;;;;;33.35;13.82;;;;;;;32.94;36.20;93503.97;4999745;28;20041;-76
2021/07/31 07:53:36;;;;;;;22.20;12.88;;;;;;;33.01;36.71;93528.41;4986397;28;20095;-77
2021/07/31 07:56:02;;;;;;;37.53;13.77;;;;;;;32.97;36.38;93524.25;4987243;28;20038;-77
2021/07/31 07:58:28;;;;;;;21.88;13.18;;;;;;;32.95;37.27;93515.69;4985043;28;20038;-78
2021/07/31 08:00:53;;;;;;;23.55;14.52;;;;;;;32.74;37.29;93522.59;4986967;28;20600;-78
2021/07/31 08:03:20;;;;;;;35.42;14.35;;;;;;;32.75;37.63;93504.94;4986373;28;20493;-79
2021/07/31 08:05:45;;;;;;;34.60;13.88;;;;;;;32.98;37.26;93521.06;4985912;28;20038;-77
2021/07/31 08:08:11;;;;;;;25.48;13.50;;;;;;;32.74;37.57;93481.53;4992193;28;20225;-77
2021/07/31 08:10:36;;;;;;;32.88;14.55;;;;;;;33.03;37.14;93512.31;4990574;28;20028;-76
2021/07/31 08:13:02;;;;;;;28.48;15.85;;;;;;;33.00;36.85;93524.13;4989152;28;20499;-78
2021/07/31 08:15:28;;;;;;;28.33;14.63;;;;;;;33.13;37.15;93504.22;4985998;28;20402;-76
2021/07/31 08:17:53;;;;;;;27.40;13.00;;;;;;;33.37;35.18;93517.16;4989054;28;20429;-76
2021/07/31 08:20:19;;;;;;;36.10;14.90;;;;;;;33.35;35.54;93497.63;4987508;28;20485;-78
2021/07/31 08:22:44;;;;;;;27.25;14.13;;;;;;;33.47;35.97;93512.53;4985079;28;20460;-77
2021/07/31 08:25:10;;;;;;;27.75;14.07;;;;;;;33.25;35.64;93503.44;4995803;28;20046;-76
2021/07/31 08:27:36;;;;;;;31.85;15.30;;;;;;;33.50;35.92;93506.94;4988323;28;20034;-77
2021/07/31 08:30:05;;;;;;;28.83;14.88;;;;;;;33.67;35.22;93502.09;4991178;28;20394;-76
2021/07/31 08:32:30;;;;;;;31.70;14.25;;;;;;;33.53;34.87;93510.75;4989592;28;20091;-77
2021/07/31 08:34:56;;;;;;;22.95;13.23;;;;;;;33.55;34.89;93497.38;4989365;28;20127;-77
2021/07/31 08:37:21;;;;;;;28.52;15.35;;;;;;;33.72;35.46;93507.00;4986488;28;20571;-76
2021/07/31 08:39:47;;;;;;;24.58;13.20;;;;;;;33.68;35.23;93509.09;4985207;28;20602;-76
2021/07/31 08:42:13;;;;;;;26.48;14.00;;;;;;;33.81;34.40;93509.84;4984325;28;20421;-75
2021/07/31 08:44:40;;;;;;;27.65;12.93;;;;;;;33.86;33.96;93505.78;4987286;28;20038;-77
2021/07/31 08:47:08;;;;;;;22.50;13.18;;;;;;;33.83;34.57;93509.38;4995545;28;20021;-76
2021/07/31 08:49:37;;;;;;;22.98;12.63;;;;;;;33.70;33.98;93501.22;4985851;28;20396;-77
2021/07/31 08:52:05;;;;;;;27.17;13.52;;;;;;;33.99;34.36;93497.50;4985728;28;20452;-76
2021/07/31 08:54:31;;;;;;;25.35;12.30;;;;;;;34.16;34.42;93491.38;4987109;28;20038;-75
2021/07/31 08:56:57;;;;;;;22.15;12.45;;;;;;;34.10;33.29;93497.88;4986622;28;20039;-76
2021/07/31 08:59:27;;;;;;;27.98;12.10;;;;;;;34.05;33.51;93503.94;4974854;28;20026;-78
2021/07/31 09:01:54;;;;;;;22.98;12.52;;;;;;;34.10;32.50;93495.16;4989134;28;20451;-77
2021/07/31 09:04:19;;;;;;;29.65;12.00;;;;;;;33.90;33.14;93477.03;4986295;28;20045;-76
2021/07/31 09:06:45;;;;;;;21.15;12.45;;;;;;;34.18;33.07;93478.03;4985874;28;20404;-76
2021/07/31 09:09:11;;;;;;;30.13;11.80;;;;;;;34.24;32.33;93486.44;4982541;28;20070;-76
2021/07/31 09:11:57;;;;;;;30.05;11.85;;;;;;;34.32;32.41;93488.47;4985352;28;20082;-77
2021/07/31 09:14:23;;;;;;;22.23;11.98;;;;;;;34.42;33.15;93483.81;4988547;28;20538;-76
2021/07/31 09:16:49;;;;;;;25.63;13.07;;;;;;;34.34;33.33;93480.56;4988025;28;20029;-76
2021/07/31 09:19:16;;;;;;;26.58;13.48;;;;;;;34.33;32.70;93483.75;4982911;28;20383;-76
2021/07/31 09:21:43;;;;;;;26.20;12.23;;;;;;;34.54;32.62;93472.00;4983569;28;20384;-77
2021/07/31 09:24:17;;;;;;;27.64;11.06;;;;;;;34.34;32.14;93468.84;4946980;28;1162019;-77
2021/07/31 09:26:48;;;;;;;21.33;11.98;;;;;;;34.17;33.83;93470.19;4988473;28;20038;-76
2021/07/31 09:29:18;;;;;;;24.30;10.88;;;;;;;34.25;32.78;93463.28;4987523;28;20446;-77
2021/07/31 09:31:51;;;;;;;17.67;10.60;;;;;;;34.50;33.03;93474.13;4986086;28;20410;-77
2021/07/31 09:34:35;;;;;;;28.95;12.18;;;;;;;34.54;32.06;93472.00;4991807;28;20038;-76
2021/07/31 09:37:04;;;;;;;32.07;12.37;;;;;;;34.58;32.14;93472.63;4988084;28;20531;-77
2021/07/31 09:39:56;;;;;;;26.20;11.63;;;;;;;34.80;32.43;93458.13;4986219;28;20378;-77
2021/07/31 09:42:31;;;;;;;27.23;11.05;;;;;;;34.87;31.13;93463.34;5000269;28;20042;-76
2021/07/31 09:44:59;;;;;;;23.58;11.43;;;;;;;34.58;30.65;93456.16;4991627;28;20049;-77
2021/07/31 09:47:25;;;;;;;20.42;10.20;;;;;;;34.68;30.75;93460.53;4987301;28;20034;-77
2021/07/31 09:49:51;;;;;;;27.70;11.40;;;;;;;34.65;30.64;93453.13;4986800;28;20658;-77
2021/07/31 09:52:18;;;;;;;24.73;10.90;;;;;;;34.71;31.20;93448.63;4985352;28;21411;-77
2021/07/31 09:54:44;;;;;;;27.23;11.02;;;;;;;34.74;30.90;93447.75;4987943;28;20472;-77
2021/07/31 09:57:11;;;;;;;29.52;11.18;;;;;;;34.79;30.37;93449.13;4984868;28;20068;-76
2021/07/31 09:59:42;;;;;;;27.65;11.10;;;;;;;34.70;30.34;93436.13;4984712;28;20037;-76
2021/07/31 10:02:13;;;;;;;25.23;11.45;;;;;;;34.57;30.91;93446.41;4987847;28;20540;-77
2021/07/31 10:04:39;;;;;;;23.77;11.27;;;;;;;34.57;31.39;93418.97;4985895;28;20262;-77
2021/07/31 10:07:04;;;;;;;32.95;12.77;;;;;;;34.97;31.44;93437.44;4995578;28;20045;-77
2021/07/31 10:09:32;;;;;;;27.92;13.82;;;;;;;34.90;31.22;93418.50;4985403;28;20034;-77
2021/07/31 10:11:59;;;;;;;30.42;11.52;;;;;;;35.10;30.48;93432.59;4985761;28;20046;-77
2021/07/31 10:14:24;;;;;;;22.73;12.00;;;;;;;34.92;31.02;93419.59;4985697;28;20038;-77
2021/07/31 10:16:51;;;;;;;25.55;10.05;;;;;;;34.95;31.03;93426.13;4985193;28;20036;-77
2021/07/31 10:19:17;;;;;;;23.50;11.40;;;;;;;35.08;31.47;93413.84;4985827;28;20044;-77
2021/07/31 10:21:47;;;;;;;25.92;11.02;;;;;;;35.15;30.94;93429.25;4985025;28;20308;-77
2021/07/31 10:24:12;;;;;;;31.17;10.45;;;;;;;35.12;30.69;93428.19;4982093;28;20293;-77
2021/07/31 10:26:38;;;;;;;25.70;11.40;;;;;;;35.20;32.69;93417.69;4984887;28;20074;-76
2021/07/31 10:29:25;;;;;;;33.08;11.82;;;;;;;35.44;31.10;93418.66;4986418;28;20034;-77
2021/07/31 10:31:52;;;;;;;30.35;10.85;;;;;;;35.54;30.49;93411.94;4987789;28;20531;-77
2021/07/31 10:34:49;;;;;;;26.13;12.05;;;;;;;35.36;30.19;93416.66;4989495;28;20044;-77
2021/07/31 10:37:31;;;;;;;26.17;11.88;;;;;;;35.22;29.98;93420.75;4986120;28;20042;-77
2021/07/31 10:39:58;;;;;;;23.13;11.38;;;;;;;35.31;31.45;93417.25;4981800;28;20412;-77
2021/07/31 10:42:23;;;;;;;22.48;12.23;;;;;;;35.31;30.48;93407.03;4986788;28;20065;-76
2021/07/31 10:45:31;;;;;;;27.77;10.10;;;;;;;35.37;30.02;93413.47;4987923;28;20034;-76
2021/07/31 10:47:58;;;;;;;22.35;10.63;;;;;;;35.60;29.79;93412.09;4987038;28;20267;-76
2021/07/31 10:52:50;;;;;;;22.17;10.93;;;;;;;35.84;29.36;93395.78;4983207;28;20125;-78
2021/07/31 10:55:17;;;;;;;22.88;11.57;;;;;;;35.90;29.44;93397.47;4987338;28;20048;-77
2021/07/31 10:57:58;;;;;;;25.42;10.13;;;;;;;36.10;29.32;93405.25;4987414;28;20105;-77
2021/07/31 11:00:27;;;;;;;18.27;9.77;;;;;;;36.10;28.33;93399.75;4984363;28;20066;-77
2021/07/31 11:02:54;;;;;;;24.33;10.77;;;;;;;36.17;28.82;93395.91;4985602;28;20088;-77
2021/07/31 11:05:20;;;;;;;18.25;9.52;;;;;;;36.32;32.49;93383.03;4982791;28;20089;-76
2021/07/31 11:07:57;;;;;;;25.80;10.30;;;;;;;36.29;29.07;93384.75;4986834;28;20030;-78
2021/07/31 11:10:31;;;;;;;23.42;10.93;;;;;;;36.07;28.54;93397.91;4985639;28;20046;-77
2021/07/31 11:12:58;;;;;;;23.88;12.00;;;;;;;35.95;29.86;93374.84;4984849;28;20046;-76
2021/07/31 11:15:23;;;;;;;26.80;11.18;;;;;;;35.85;29.57;93372.56;4983617;28;20034;-78
2021/07/31 11:17:57;;;;;;;28.60;10.88;;;;;;;35.88;30.24;93382.66;4985113;28;20061;-76